Time;durP1;ratioP1;P1;durP2;ratioP2;P2;SDS_P1;SDS_P2;PMS_P1;PMS_P2;Temp;Humidity;BMP_temperature;BMP_pressure;BME280_temperature;BME280_humidity;BME280_pressure;Samples;Min_cycle;Max_cycle;Signal;HPM_P1;HPM_P2
2022/12/01 00:02:08;;;;;;;7.80;5.90;;;;;;;16.17;33.63;101605.11;106980;1281;66521;-90
2022/12/01 00:04:34;;;;;;;8.00;6.30;;;;;;;16.19;33.52;101599.11;104443;1293;69169;-89
2022/12/01 00:06:59;;;;;;;9.30;6.70;;;;;;;16.21;33.53;101597.55;104603;1296;69186;-89
2022/12/01 00:12:10;;;;;;;9.30;6.40;;;;;;;16.25;33.44;101598.30;104394;1296;69221;-88
2022/12/01 00:14:36;;;;;;;9.50;6.50;;;;;;;16.26;33.33;101595.39;104373;1285;69262;-88
2022/12/01 00:17:01;;;;;;;10.20;6.90;;;;;;;16.27;33.39;101594.96;104552;1287;69331;-89
2022/12/01 00:19:27;;;;;;;10.80;6.30;;;;;;;16.27;33.33;101588.80;104232;1291;69273;-89
2022/12/01 00:21:52;;;;;;;10.80;6.20;;;;;;;16.29;33.34;101588.59;104333;1292;69231;-89
2022/12/01 00:24:18;;;;;;;10.80;6.50;;;;;;;16.29;33.34;101585.71;104215;1292;69196;-88
2022/12/01 00:26:43;;;;;;;9.20;6.30;;;;;;;16.30;33.32;101581.38;104137;1282;69160;-88
2022/12/01 00:29:09;;;;;;;9.40;6.50;;;;;;;16.30;33.23;101579.05;104158;1293;69280;-89
2022/12/01 00:31:34;;;;;;;10.00;7.00;;;;;;;16.31;33.36;101578.39;104722;1284;69229;-88
2022/12/01 00:34:00;;;;;;;9.10;6.40;;;;;;;16.31;33.29;101572.23;104462;1296;69394;-89
2022/12/01 00:36:26;;;;;;;11.00;7.20;;;;;;;16.32;33.20;101569.01;105366;1291;67778;-91
2022/12/01 00:38:54;;;;;;;9.20;6.70;;;;;;;16.32;33.26;101565.41;105616;1290;69168;-89
2022/12/01 00:41:21;;;;;;;9.50;6.40;;;;;;;16.34;33.19;101565.27;105103;1283;69032;-89
2022/12/01 00:43:46;;;;;;;9.90;6.50;;;;;;;16.35;33.12;101562.92;104205;1284;69172;-89
2022/12/01 00:46:12;;;;;;;10.50;7.00;;;;;;;16.36;33.22;101569.36;103974;1282;69340;-89
2022/12/01 00:48:37;;;;;;;10.50;7.00;;;;;;;16.36;33.14;101573.89;103929;1291;69191;-89
2022/12/01 00:51:03;;;;;;;9.70;6.30;;;;;;;16.36;33.09;101574.30;103881;1298;69349;-89
2022/12/01 00:53:28;;;;;;;9.40;6.50;;;;;;;16.37;33.00;101578.30;104179;1292;69294;-89
2022/12/01 00:55:54;;;;;;;11.40;7.20;;;;;;;16.38;33.07;101578.61;104200;1289;69217;-88
2022/12/01 00:58:20;;;;;;;11.20;7.10;;;;;;;16.39;33.03;101580.43;104212;1292;69142;-89
2022/12/01 01:00:46;;;;;;;11.20;7.40;;;;;;;16.40;33.02;101574.81;104277;1290;69074;-89
2022/12/01 01:03:11;;;;;;;10.90;7.60;;;;;;;16.41;33.08;101579.88;104087;1298;69242;-90
2022/12/01 01:05:38;;;;;;;9.30;6.80;;;;;;;16.42;33.04;101581.94;104334;1292;69223;-89
2022/12/01 01:08:08;;;;;;;10.30;7.40;;;;;;;16.42;32.94;101581.14;104071;1296;83118;-89
2022/12/01 01:10:37;;;;;;;13.50;7.20;;;;;;;16.42;33.00;101577.60;104208;1289;72365;-89
2022/12/01 01:13:03;;;;;;;13.20;7.50;;;;;;;16.44;32.94;101572.38;104370;1295;69114;-89
2022/12/01 01:15:28;;;;;;;13.90;7.30;;;;;;;16.44;32.95;101571.17;104116;1298;69297;-89
2022/12/01 01:17:54;;;;;;;11.60;7.10;;;;;;;16.46;33.00;101569.74;104026;1294;69224;-89
2022/12/01 01:20:19;;;;;;;10.70;7.40;;;;;;;16.46;32.93;101569.64;104541;1292;69186;-89
2022/12/01 01:22:45;;;;;;;11.10;7.20;;;;;;;16.47;32.90;101561.48;104428;1294;69136;-89
2022/12/01 01:25:10;;;;;;;10.90;7.60;;;;;;;16.48;32.88;101557.29;104333;1288;69075;-89
2022/12/01 01:27:36;;;;;;;11.00;7.20;;;;;;;16.49;32.85;101556.16;104332;1292;69148;-89
2022/12/01 01:30:02;;;;;;;11.20;7.30;;;;;;;16.50;33.03;101550.76;104118;1288;69162;-92
2022/12/01 01:32:28;;;;;;;11.80;6.90;;;;;;;16.51;32.91;101549.91;104174;1290;69202;-89
2022/12/01 01:34:53;;;;;;;11.00;6.80;;;;;;;16.51;32.89;101547.34;104605;1292;69183;-89
2022/12/01 01:37:18;;;;;;;9.70;6.90;;;;;;;16.52;32.89;101540.53;104478;1290;69086;-90
2022/12/01 01:39:44;;;;;;;12.90;7.20;;;;;;;16.54;32.81;101537.99;104468;1292;69240;-88
2022/12/01 01:42:12;;;;;;;12.10;7.10;;;;;;;16.55;32.71;101537.56;104482;1285;69236;-91
2022/12/01 01:44:52;;;;;;;9.60;6.60;;;;;;;16.56;32.83;101541.20;104280;1288;69193;-89
2022/12/01 01:47:38;;;;;;;10.40;7.30;;;;;;;16.57;32.76;101541.00;104089;1294;69156;-89
2022/12/01 01:50:08;;;;;;;11.20;7.10;;;;;;;16.58;32.84;101538.98;104503;1291;74311;-89
2022/12/01 01:52:35;;;;;;;9.80;6.60;;;;;;;16.59;32.78;101545.33;104158;1294;81925;-89
2022/12/01 01:55:01;;;;;;;11.20;7.10;;;;;;;16.59;32.74;101545.96;104356;1281;72534;-89
2022/12/01 01:57:28;;;;;;;8.60;6.50;;;;;;;16.61;32.76;101546.87;104303;1291;69282;-89
2022/12/01 01:59:58;;;;;;;9.70;7.10;;;;;;;16.62;32.71;101542.58;103860;1292;69116;-90
2022/12/01 02:02:24;;;;;;;9.30;6.40;;;;;;;16.63;32.70;101542.30;104434;1291;74455;-89
2022/12/01 02:04:54;;;;;;;11.00;7.10;;;;;;;16.63;32.75;101538.16;104538;1292;69166;-89
2022/12/01 02:07:20;;;;;;;8.60;6.50;;;;;;;16.64;32.73;101538.91;104582;1295;72290;-89
2022/12/01 02:09:45;;;;;;;11.50;7.50;;;;;;;16.65;32.61;101538.01;104457;1286;69187;-89
2022/12/01 02:12:33;;;;;;;10.50;6.70;;;;;;;16.65;32.63;101535.19;104261;1284;69163;-90
2022/12/01 02:15:17;;;;;;;10.70;6.70;;;;;;;16.66;32.67;101528.85;104388;1291;74402;-93
2022/12/01 02:18:06;;;;;;;10.20;6.90;;;;;;;16.66;32.60;101526.52;104366;1291;82083;-89
2022/12/01 02:21:16;;;;;;;9.80;6.60;;;;;;;16.67;32.53;101524.99;104148;1287;72385;-89
2022/12/01 02:23:59;;;;;;;10.80;7.20;;;;;;;16.67;32.55;101518.09;103852;1301;69134;-89
2022/12/01 02:26:51;;;;;;;10.80;6.60;;;;;;;16.69;32.65;101512.48;103750;1302;69243;-89
2022/12/01 02:29:55;;;;;;;9.50;6.80;;;;;;;16.70;32.65;101514.03;103851;1292;469278;-88
2022/12/01 02:32:38;;;;;;;11.60;7.20;;;;;;;16.71;32.57;101511.23;104230;1292;82047;-89
2022/12/01 02:35:22;;;;;;;12.00;6.90;;;;;;;16.71;32.43;101509.92;104692;1288;73916;-89
2022/12/01 02:38:14;;;;;;;9.80;7.00;;;;;;;16.72;32.54;101508.21;104618;1284;69066;-89
2022/12/01 02:40:48;;;;;;;12.10;7.00;;;;;;;16.73;32.52;101505.95;104699;1291;69074;-89
2022/12/01 02:44:02;;;;;;;11.50;7.00;;;;;;;16.75;32.53;101502.77;104553;1285;74266;-89
2022/12/01 02:46:50;;;;;;;8.90;6.50;;;;;;;16.75;32.47;101498.67;104453;1292;82443;-89
2022/12/01 02:49:18;;;;;;;8.80;6.40;;;;;;;16.76;32.42;101503.98;104135;1291;72472;-89
2022/12/01 02:51:44;;;;;;;10.80;6.80;;;;;;;16.77;32.38;101499.80;104453;1288;69052;-89
2022/12/01 02:54:09;;;;;;;10.00;6.80;;;;;;;16.78;32.46;101498.56;104018;1286;69205;-89
2022/12/01 02:56:35;;;;;;;10.30;6.10;;;;;;;16.79;32.37;101496.21;104198;1289;69243;-89
2022/12/01 02:59:00;;;;;;;9.00;6.70;;;;;;;16.80;32.36;101505.04;104146;1292;69190;-89
2022/12/01 03:01:42;;;;;;;8.70;6.20;;;;;;;16.81;32.34;101508.67;104478;1292;69156;-89
2022/12/01 03:04:35;;;;;;;12.20;7.60;;;;;;;16.82;32.31;101508.72;104547;1294;70450;-89
2022/12/01 03:07:14;;;;;;;9.50;6.30;;;;;;;16.83;32.25;101508.04;104660;1287;74488;-89
2022/12/01 03:10:12;;;;;;;8.70;6.20;;;;;;;16.84;32.23;101509.20;104699;1285;81141;-89
2022/12/01 03:12:57;;;;;;;11.00;6.70;;;;;;;16.85;32.30;101509.42;104442;1286;72417;-88
2022/12/01 03:15:45;;;;;;;9.80;6.70;;;;;;;16.86;32.32;101513.60;104697;1288;69174;-89
2022/12/01 03:18:29;;;;;;;9.60;6.40;;;;;;;16.87;32.18;101518.18;104481;1286;66891;-88
2022/12/01 03:21:00;;;;;;;9.70;6.30;;;;;;;16.88;32.27;101518.56;104708;1292;74523;-89
2022/12/01 03:23:27;;;;;;;8.90;6.50;;;;;;;16.89;32.25;101521.55;104468;1288;82105;-88
2022/12/01 03:25:53;;;;;;;8.60;5.90;;;;;;;16.90;32.12;101530.78;104384;1290;72538;-88
2022/12/01 03:28:21;;;;;;;8.50;6.30;;;;;;;16.90;32.16;101522.15;104198;1288;69160;-88
2022/12/01 03:30:48;;;;;;;9.40;6.20;;;;;;;16.91;32.06;101517.48;104673;1294;69024;-88
2022/12/01 03:33:18;;;;;;;8.00;6.00;;;;;;;16.91;32.16;101514.36;104535;1292;69106;-88
2022/12/01 03:36:01;;;;;;;8.20;6.40;;;;;;;16.93;32.02;101508.00;104366;1292;82089;-92
2022/12/01 03:38:27;;;;;;;11.30;5.80;;;;;;;16.93;32.08;101504.45;104559;1291;71258;-88
2022/12/01 03:40:57;;;;;;;10.30;6.00;;;;;;;16.94;32.12;101505.07;104276;1292;69222;-88
2022/12/01 03:43:34;;;;;;;8.30;5.70;;;;;;;16.96;32.01;101505.17;104562;1291;69147;-87
2022/12/01 03:46:24;;;;;;;9.40;5.60;;;;;;;16.97;32.01;101498.86;104403;1293;74327;-88
2022/12/01 03:48:51;;;;;;;7.70;5.70;;;;;;;16.98;32.05;101500.56;104771;1292;81074;-88
2022/12/01 03:51:17;;;;;;;7.70;5.60;;;;;;;16.99;31.96;101504.98;104928;1293;73413;-91
2022/12/01 03:54:00;;;;;;;8.70;6.30;;;;;;;17.01;32.05;101505.80;105394;1290;69246;31
2022/12/01 03:59:06;;;;;;;8.70;5.90;;;;;;;17.03;31.95;101499.48;105399;1277;73738;-92
2022/12/01 04:01:32;;;;;;;9.30;5.90;;;;;;;17.05;32.02;101494.80;105381;1287;82139;-91
2022/12/01 04:04:08;;;;;;;6.90;5.40;;;;;;;17.07;31.90;101497.58;105342;1286;69153;-92
2022/12/01 04:06:34;;;;;;;9.10;6.20;;;;;;;17.10;31.91;101496.11;105258;1291;68966;-92
2022/12/01 04:09:00;;;;;;;9.20;5.90;;;;;;;17.12;31.88;101492.91;104869;1281;69080;-90
2022/12/01 04:14:06;;;;;;;8.00;5.90;;;;;;;17.16;31.83;101492.55;104809;1287;82063;-91
2022/12/01 04:16:31;;;;;;;8.80;5.70;;;;;;;17.18;31.81;101497.02;105046;1287;67772;-91
2022/12/01 04:18:57;;;;;;;8.20;6.20;;;;;;;17.19;31.85;101492.41;105115;1288;69166;-90
2022/12/01 04:21:27;;;;;;;6.90;5.40;;;;;;;17.21;31.77;101491.76;104998;1283;69164;-90
2022/12/01 04:26:57;;;;;;;8.90;5.80;;;;;;;17.25;31.79;101482.67;105146;1288;81869;-90
2022/12/01 04:31:53;;;;;;;8.70;5.50;;;;;;;17.28;31.72;101486.20;106009;1285;68224;-92
2022/12/01 04:34:19;;;;;;;9.20;5.80;;;;;;;17.31;31.76;101490.27;106040;1282;69067;-92
2022/12/01 04:37:04;;;;;;;7.90;5.50;;;;;;;17.34;31.68;101490.70;106031;1287;68064;-91
2022/12/01 04:39:30;;;;;;;8.20;5.90;;;;;;;17.36;31.67;101495.83;106169;1289;82031;-92
2022/12/01 04:41:55;;;;;;;8.00;5.90;;;;;;;17.37;31.67;101496.79;105790;1277;69650;-90
2022/12/01 04:50:03;;;;;;;8.60;5.70;;;;;;;17.42;31.66;101500.36;104900;1288;73185;-92
2022/12/01 04:52:29;;;;;;;9.20;6.00;;;;;;;17.45;31.53;101495.18;105183;1292;69187;-91
2022/12/01 04:54:54;;;;;;;8.30;5.50;;;;;;;17.46;31.45;101500.39;105303;1294;69286;-90
2022/12/01 04:57:20;;;;;;;7.30;5.50;;;;;;;17.47;31.50;101494.34;105294;1292;69345;-90
2022/12/01 04:59:45;;;;;;;6.80;5.50;;;;;;;17.49;31.52;101494.34;105201;1295;69254;-90
2022/12/01 05:02:11;;;;;;;8.60;5.90;;;;;;;17.50;31.41;101496.38;105008;1295;83368;-90
2022/12/01 05:04:40;;;;;;;8.70;6.20;;;;;;;17.51;31.49;101500.42;105236;1280;69217;-91
2022/12/01 05:07:25;;;;;;;7.70;5.70;;;;;;;17.52;31.49;101500.46;105203;1279;68870;-91
2022/12/01 05:09:50;;;;;;;7.60;5.50;;;;;;;17.53;31.43;101504.50;105501;1277;69312;-92
2022/12/01 05:12:16;;;;;;;8.10;5.90;;;;;;;17.55;31.38;101504.74;105209;1289;69123;-90
2022/12/01 05:14:46;;;;;;;8.50;6.10;;;;;;;17.56;31.35;101503.36;105390;1283;69198;-92
2022/12/01 05:22:41;;;;;;;7.50;5.40;;;;;;;17.59;31.38;101507.52;106993;1281;66699;-90
2022/12/01 05:25:07;;;;;;;7.20;5.40;;;;;;;17.61;31.31;101510.52;106981;1284;66537;-90
2022/12/01 05:27:32;;;;;;;8.00;5.90;;;;;;;17.62;31.32;101509.09;106268;1285;69130;-91
2022/12/01 05:29:58;;;;;;;10.50;5.80;;;;;;;17.64;31.27;101511.98;105373;1291;69188;-92
2022/12/01 05:32:32;;;;;;;7.80;5.90;;;;;;;17.65;31.27;101516.16;104956;1292;69783;31
2022/12/01 05:34:57;;;;;;;8.30;5.90;;;;;;;17.68;31.30;101514.70;105093;1288;74309;-93
2022/12/01 05:37:33;;;;;;;7.50;5.80;;;;;;;17.69;31.22;101510.58;105097;1292;68226;-91
2022/12/01 05:39:59;;;;;;;8.60;5.70;;;;;;;17.70;31.21;101510.39;105237;1279;72492;-91
2022/12/01 05:42:25;;;;;;;7.90;5.80;;;;;;;17.71;31.14;101508.89;105204;1286;69207;-92
2022/12/01 05:44:50;;;;;;;6.80;5.40;;;;;;;17.72;31.17;101512.45;105249;1282;69259;-92
2022/12/01 05:47:22;;;;;;;7.30;6.10;;;;;;;17.72;31.06;101514.75;105279;1294;69131;31
2022/12/01 05:49:49;;;;;;;8.90;5.80;;;;;;;17.73;31.14;101522.72;106474;1288;82337;-92
2022/12/01 05:52:14;;;;;;;7.90;5.70;;;;;;;17.75;31.08;101524.10;106440;1288;68104;-91
2022/12/01 05:54:40;;;;;;;8.00;6.00;;;;;;;17.76;31.10;101525.18;105529;1290;69142;-92
2022/12/01 05:57:05;;;;;;;9.00;6.40;;;;;;;17.77;31.05;101521.85;105491;1283;69087;-92
2022/12/01 05:59:31;;;;;;;8.80;5.70;;;;;;;17.78;31.04;101522.55;105362;1285;69256;-91
2022/12/01 06:01:56;;;;;;;8.50;5.80;;;;;;;17.79;30.97;101528.23;104742;1288;72638;-90
2022/12/01 06:04:23;;;;;;;8.90;6.00;;;;;;;17.81;31.05;101529.39;105320;1288;67812;-93
2022/12/01 06:06:49;;;;;;;7.60;5.50;;;;;;;17.81;30.94;101528.95;105375;1286;69259;-92
2022/12/01 06:09:14;;;;;;;8.30;6.00;;;;;;;17.82;30.92;101531.38;105551;1287;69218;-90
2022/12/01 06:11:40;;;;;;;8.00;5.60;;;;;;;17.83;30.89;101529.02;105403;1288;68117;-92
2022/12/01 06:16:42;;;;;;;7.40;5.60;;;;;;;17.85;30.89;101528.48;105282;1278;69029;-91
2022/12/01 06:19:07;;;;;;;8.10;6.10;;;;;;;17.86;30.87;101528.59;105155;1286;69176;-92
2022/12/01 06:21:33;;;;;;;6.80;5.30;;;;;;;17.87;30.82;101534.54;105102;1278;69143;-92
2022/12/01 06:23:58;;;;;;;9.90;6.10;;;;;;;17.89;30.85;101531.38;105318;1279;69323;-92
2022/12/01 06:26:43;;;;;;;7.60;5.60;;;;;;;17.90;30.87;101532.68;105557;1273;69136;-92
2022/12/01 06:29:13;;;;;;;11.20;6.00;;;;;;;17.91;30.85;101535.27;105362;1285;74211;31
2022/12/01 06:31:39;;;;;;;8.80;6.10;;;;;;;17.93;30.82;101538.06;105097;1287;83126;-92
2022/12/01 06:34:09;;;;;;;8.00;5.80;;;;;;;17.94;30.74;101538.39;105287;1291;69109;-91
2022/12/01 06:36:34;;;;;;;8.70;5.90;;;;;;;17.95;30.77;101537.29;105244;1294;69343;-92
2022/12/01 06:39:00;;;;;;;8.20;6.10;;;;;;;17.95;30.69;101536.39;105414;1288;69166;-90
2022/12/01 06:41:33;;;;;;;9.20;5.70;;;;;;;17.96;30.68;101539.31;105477;1291;69158;-90
2022/12/01 06:46:25;;;;;;;7.00;5.70;;;;;;;17.98;30.71;101533.48;105580;1285;69182;-92
2022/12/01 06:48:50;;;;;;;8.90;5.90;;;;;;;17.99;30.78;101536.24;105357;1291;69189;-92
2022/12/01 06:51:16;;;;;;;8.80;6.20;;;;;;;18.01;30.62;101532.67;105196;1291;69682;-92
2022/12/01 06:53:41;;;;;;;7.50;5.20;;;;;;;18.02;30.68;101531.09;105338;1291;69212;-90
2022/12/01 06:56:07;;;;;;;9.60;5.90;;;;;;;18.03;30.69;101529.45;105225;1288;72733;-90
2022/12/01 06:58:33;;;;;;;7.90;5.90;;;;;;;18.04;30.60;101528.60;104614;1292;69119;-91
2022/12/01 07:00:59;;;;;;;7.90;6.10;;;;;;;18.06;30.64;101528.21;105041;1288;69167;-91
2022/12/01 07:03:50;;;;;;;9.00;6.20;;;;;;;18.08;30.65;101529.90;105243;1287;69339;-91
2022/12/01 07:06:15;;;;;;;;;;;;;;;18.10;30.70;101528.44;105160;1289;81968;-90
2022/12/01 07:08:45;;;;;;;7.10;5.40;;;;;;;18.10;30.79;101528.19;105106;1288;69131;-90
2022/12/01 07:14:22;;;;;;;8.90;5.80;;;;;;;18.13;30.79;101528.78;105328;1284;69060;-90
2022/12/01 07:19:28;;;;;;;7.60;5.60;;;;;;;18.16;30.63;101534.04;104964;1292;82904;-92
2022/12/01 07:21:54;;;;;;;7.00;5.40;;;;;;;18.18;30.68;101531.63;105198;1288;70174;-92
2022/12/01 07:24:19;;;;;;;7.10;5.60;;;;;;;18.20;30.58;101533.95;104956;1289;69111;-91
2022/12/01 07:26:45;;;;;;;9.40;5.80;;;;;;;18.21;30.62;101535.98;105216;1288;69252;-92
2022/12/01 07:29:15;;;;;;;7.10;5.20;;;;;;;18.22;30.60;101533.67;104954;1291;69299;-91
2022/12/01 07:31:41;;;;;;;9.70;5.60;;;;;;;18.24;30.62;101534.59;105016;1294;72456;-91
2022/12/01 07:34:25;;;;;;;8.20;5.90;;;;;;;18.26;30.63;101539.45;104774;1288;69185;-92
2022/12/01 07:36:51;;;;;;;7.00;5.20;;;;;;;18.28;30.56;101538.67;105246;1284;69199;-90
2022/12/01 07:39:17;;;;;;;7.00;5.50;;;;;;;18.29;30.53;101537.58;105411;1293;69190;-92
2022/12/01 07:41:42;;;;;;;6.90;5.50;;;;;;;18.30;30.62;101540.96;105369;1287;69173;-90
2022/12/01 07:44:12;;;;;;;6.90;5.60;;;;;;;18.31;30.59;101545.33;105303;1291;69284;-90
2022/12/01 07:49:21;;;;;;;7.50;5.20;;;;;;;18.34;30.58;101549.52;104842;1288;74402;-92
2022/12/01 07:51:47;;;;;;;6.90;5.40;;;;;;;18.34;30.62;101546.30;105197;1293;69148;-92
2022/12/01 07:54:16;;;;;;;6.90;5.30;;;;;;;18.36;30.56;101546.89;105354;1288;69275;-92
2022/12/01 07:56:46;;;;;;;7.10;5.40;;;;;;;18.36;30.49;101546.23;105410;1292;69145;-90
2022/12/01 07:59:11;;;;;;;7.10;5.30;;;;;;;18.37;30.58;101543.78;105430;1287;69061;-92
2022/12/01 08:04:08;;;;;;;7.40;5.30;;;;;;;18.38;30.57;101547.43;105509;1285;80863;-92
2022/12/01 08:06:33;;;;;;;7.90;5.40;;;;;;;18.39;30.54;101546.52;105338;1285;69197;-92
2022/12/01 08:08:59;;;;;;;7.00;5.30;;;;;;;18.39;30.44;101546.59;105392;1279;67025;-92
2022/12/01 08:11:28;;;;;;;8.10;5.20;;;;;;;18.39;30.43;101548.16;105254;1279;69313;-92
2022/12/01 08:13:53;;;;;;;6.70;5.20;;;;;;;18.39;30.40;101545.30;105018;1276;68927;-90
2022/12/01 08:16:21;;;;;;;7.00;5.10;;;;;;;18.40;30.45;101545.27;104865;1295;69296;-92
2022/12/01 08:18:46;;;;;;;8.70;5.30;;;;;;;18.40;30.46;101546.65;105611;1285;68141;-91
2022/12/01 08:21:14;;;;;;;8.70;5.50;;;;;;;18.39;30.46;101539.86;105302;1293;69187;-90
2022/12/01 08:23:40;;;;;;;7.30;5.40;;;;;;;18.39;30.43;101540.66;105137;1288;69233;-91
2022/12/01 08:26:12;;;;;;;7.20;5.20;;;;;;;18.39;30.44;101535.05;105180;1288;68946;-90
2022/12/01 08:28:47;;;;;;;5.90;5.00;;;;;;;18.39;30.42;101539.55;104828;1288;81960;31
2022/12/01 08:31:14;;;;;;;8.30;5.50;;;;;;;18.38;30.46;101538.23;104846;1286;72310;-90
2022/12/01 08:33:40;;;;;;;6.70;5.20;;;;;;;18.37;30.47;101535.27;104939;1284;69252;-92
2022/12/01 08:36:05;;;;;;;6.90;5.20;;;;;;;18.38;30.39;101530.55;105158;1286;69135;-92
2022/12/01 08:38:31;;;;;;;7.20;5.40;;;;;;;18.37;30.42;101531.60;105199;1292;69181;-90
2022/12/01 08:41:06;;;;;;;6.70;5.20;;;;;;;18.37;30.43;101528.11;105285;1288;69158;-91
2022/12/01 08:46:12;;;;;;;6.50;5.00;;;;;;;18.36;30.43;101531.77;104775;1278;69025;-92
2022/12/01 08:48:38;;;;;;;6.60;5.50;;;;;;;18.35;30.47;101528.27;105232;1279;69136;-90
2022/12/01 08:51:12;;;;;;;8.00;5.00;;;;;;;18.34;30.39;101530.76;105104;1275;67776;-92
2022/12/01 08:53:39;;;;;;;6.80;5.10;;;;;;;18.34;30.48;101523.66;105148;1293;81929;-92
2022/12/01 08:56:14;;;;;;;7.60;5.30;;;;;;;18.35;30.46;101514.66;104778;1282;72387;-91
2022/12/01 08:58:44;;;;;;;6.70;5.20;;;;;;;18.34;30.55;101513.96;104769;1292;70070;-90
2022/12/01 09:01:11;;;;;;;7.30;5.60;;;;;;;18.33;30.47;101517.20;104817;1288;69197;-90
2022/12/01 09:03:37;;;;;;;7.50;5.40;;;;;;;18.33;30.44;101511.60;105076;1291;74206;-90
2022/12/01 09:06:04;;;;;;;6.40;5.10;;;;;;;18.32;30.44;101516.29;104950;1283;69188;-90
2022/12/01 09:08:30;;;;;;;6.90;4.90;;;;;;;18.32;30.42;101511.95;104975;1279;72707;-91
2022/12/01 09:10:56;;;;;;;7.80;5.50;;;;;;;18.31;30.45;101513.29;105278;1277;69131;-92
2022/12/01 09:16:09;;;;;;;8.40;5.40;;;;;;;18.31;30.50;101509.36;104981;1289;74168;-92
2022/12/01 09:18:35;;;;;;;7.10;5.20;;;;;;;18.31;30.43;101511.91;105416;1296;82218;-92
2022/12/01 09:21:11;;;;;;;6.10;5.00;;;;;;;18.32;30.45;101509.08;105362;1293;69259;-92
2022/12/01 09:23:38;;;;;;;6.70;5.00;;;;;;;18.31;30.45;101511.11;105477;1286;69105;-92
2022/12/01 09:26:04;;;;;;;6.00;4.80;;;;;;;18.32;30.42;101502.27;105386;1287;69171;-92
2022/12/01 09:28:37;;;;;;;7.30;5.40;;;;;;;18.33;30.46;101503.77;105087;1288;69250;31
2022/12/01 09:31:08;;;;;;;7.70;5.00;;;;;;;18.33;30.37;101505.76;105027;1288;82101;-92
2022/12/01 09:33:38;;;;;;;5.60;4.50;;;;;;;18.33;30.39;101505.81;105371;1285;72587;-91
2022/12/01 09:36:04;;;;;;;6.50;5.00;;;;;;;18.34;30.36;101507.96;105599;1275;66838;-91
2022/12/01 09:38:31;;;;;;;6.10;4.50;;;;;;;18.34;30.34;101506.13;105135;1293;69081;-92
2022/12/01 09:40:58;;;;;;;6.50;4.60;;;;;;;18.34;30.30;101503.95;105417;1288;66801;-92
2022/12/01 09:43:29;;;;;;;5.40;4.70;;;;;;;18.34;30.27;101500.58;105255;1285;82033;-92
2022/12/01 09:46:01;;;;;;;5.60;4.60;;;;;;;18.35;30.31;101497.70;104973;1294;71507;-91
2022/12/01 09:48:30;;;;;;;6.30;4.70;;;;;;;18.34;30.34;101493.05;105198;1280;69081;-92
2022/12/01 09:50:56;;;;;;;6.00;4.70;;;;;;;18.35;30.28;101494.07;105012;1294;69208;-92
2022/12/01 09:53:23;;;;;;;5.40;4.20;;;;;;;18.34;30.21;101491.86;105156;1295;69297;-92
2022/12/01 09:55:49;;;;;;;5.00;3.80;;;;;;;18.34;30.26;101491.63;105040;1294;69176;-92
2022/12/01 09:58:20;;;;;;;5.70;4.30;;;;;;;18.34;30.16;101490.50;104984;1295;69202;-92
2022/12/01 10:00:47;;;;;;;5.90;4.00;;;;;;;18.34;30.23;101493.45;105014;1291;67874;-92
2022/12/01 10:03:45;;;;;;;5.20;4.00;;;;;;;18.35;30.17;101484.39;105116;1292;69041;-92
2022/12/01 10:06:15;;;;;;;4.90;3.80;;;;;;;18.34;30.17;101479.29;105319;1292;74507;-92
2022/12/01 10:08:43;;;;;;;4.70;3.70;;;;;;;18.35;30.19;101470.44;105032;1287;83051;-92
2022/12/01 10:11:31;;;;;;;5.00;3.70;;;;;;;18.35;30.18;101472.37;105159;1294;72508;-92
2022/12/01 10:13:57;;;;;;;5.90;4.00;;;;;;;18.36;30.18;101472.65;105019;1284;69117;-92
2022/12/01 10:16:34;;;;;;;5.70;4.00;;;;;;;18.36;30.20;101470.27;105143;1291;69260;-91
2022/12/01 10:36:48;;;;;;;5.40;4.10;;;;;;;18.37;30.11;101457.06;105006;1293;80019;-90
2022/12/01 10:39:28;;;;;;;5.20;3.80;;;;;;;18.38;30.13;101455.20;105293;1288;69208;-92
2022/12/01 10:42:01;;;;;;;5.00;3.80;;;;;;;18.39;30.14;101451.70;105585;1276;69075;-92
2022/12/01 10:44:26;;;;;;;6.20;3.90;;;;;;;18.40;30.15;101448.46;105289;1287;69088;-92
2022/12/01 10:46:54;;;;;;;5.30;4.00;;;;;;;18.41;30.11;101443.45;105284;1294;69191;-92
2022/12/01 10:49:19;;;;;;;6.00;3.80;;;;;;;18.41;30.14;101438.15;105187;1288;66883;-92
2022/12/01 10:51:53;;;;;;;6.30;4.50;;;;;;;18.43;30.04;101438.95;105060;1289;69182;-92
2022/12/01 10:54:19;;;;;;;5.30;4.10;;;;;;;18.43;30.05;101434.52;105801;1288;69064;-91
2022/12/01 10:56:46;;;;;;;6.90;4.40;;;;;;;18.44;30.13;101438.02;105876;1279;69281;-90
2022/12/01 10:59:22;;;;;;;5.50;3.90;;;;;;;18.44;30.10;101436.31;105576;1285;74465;-92
2022/12/01 11:01:48;;;;;;;6.10;4.20;;;;;;;18.45;30.14;101434.84;105344;1285;83130;-92
2022/12/01 11:04:32;;;;;;;7.20;4.70;;;;;;;18.47;30.10;101436.21;105575;1284;69289;-90
2022/12/01 11:09:38;;;;;;;6.40;4.00;;;;;;;18.49;30.03;101435.80;105588;1287;68934;-92
2022/12/01 11:12:04;;;;;;;5.70;4.30;;;;;;;18.50;30.10;101433.48;105669;1288;69223;-90
2022/12/01 11:14:57;;;;;;;5.90;4.40;;;;;;;18.51;30.13;101432.13;105387;1288;66800;-90
2022/12/01 11:17:26;;;;;;;5.80;4.10;;;;;;;18.52;30.08;101431.59;105540;1276;72306;-92
2022/12/01 11:19:51;;;;;;;5.00;3.90;;;;;;;18.53;30.13;101438.45;105830;1276;68891;-90
2022/12/01 11:22:38;;;;;;;5.00;4.10;;;;;;;18.53;30.05;101436.97;105612;1285;69243;-90
2022/12/01 11:25:08;;;;;;;4.90;3.80;;;;;;;18.53;30.06;101436.58;105859;1287;75378;31
2022/12/01 11:27:47;;;;;;;5.40;3.90;;;;;;;18.54;30.10;101440.88;105214;1292;81172;-92
2022/12/01 11:30:22;;;;;;;5.40;4.10;;;;;;;18.54;30.03;101434.95;105225;1280;72481;-92
2022/12/01 11:32:53;;;;;;;6.30;4.20;;;;;;;18.56;30.13;101428.77;105420;1291;69197;-92
2022/12/01 11:35:19;;;;;;;4.90;3.80;;;;;;;18.57;30.02;101426.15;105951;1288;69152;-92
2022/12/01 11:37:51;;;;;;;4.90;4.10;;;;;;;18.57;30.00;101431.56;105748;1286;66739;-92
2022/12/01 11:40:23;;;;;;;4.90;3.90;;;;;;;18.58;29.96;101425.36;105484;1283;83256;-90
2022/12/01 11:45:20;;;;;;;6.10;4.00;;;;;;;18.59;29.96;101424.59;105076;1292;69190;-92
2022/12/01 11:48:01;;;;;;;5.40;4.30;;;;;;;18.61;30.09;101422.84;105418;1288;69206;-92
2022/12/01 11:50:28;;;;;;;10.30;4.70;;;;;;;18.62;29.95;101423.02;105514;1277;74447;-91
2022/12/01 11:52:54;;;;;;;5.20;4.10;;;;;;;18.63;29.96;101415.77;105267;1287;82105;-93
2022/12/01 11:55:29;;;;;;;5.00;4.00;;;;;;;18.63;29.92;101414.50;105300;1288;69210;-92
2022/12/01 12:03:35;;;;;;;5.20;3.90;;;;;;;18.65;29.94;101403.17;105186;1291;73169;-90
2022/12/01 12:06:19;;;;;;;;;;;;;;;18.66;29.92;101398.96;105194;1285;82990;-91
2022/12/01 12:09:12;;;;;;;4.70;4.00;;;;;;;18.65;29.97;101392.15;105380;1285;72532;-89
2022/12/01 12:12:08;;;;;;;4.70;3.90;;;;;;;18.67;29.93;101391.17;105788;1289;68319;-90
2022/12/01 12:14:38;;;;;;;5.10;4.00;;;;;;;18.67;30.02;101398.02;105852;1275;67769;-90
2022/12/01 12:17:36;;;;;;;7.20;4.20;;;;;;;18.68;30.01;101399.11;105848;1286;74428;-93
2022/12/01 12:20:35;;;;;;;5.40;4.10;;;;;;;18.69;30.01;101392.05;105357;1282;83028;-92
2022/12/01 12:23:17;;;;;;;6.00;4.10;;;;;;;18.70;29.94;101395.80;105594;1291;72630;-91
2022/12/01 12:26:16;;;;;;;6.00;4.40;;;;;;;18.71;29.98;101396.48;105495;1285;67938;-90
2022/12/01 12:29:13;;;;;;;6.50;4.00;;;;;;;18.72;29.96;101396.92;105628;1285;68856;-91
2022/12/01 12:31:49;;;;;;;5.60;4.00;;;;;;;18.73;30.01;101399.54;105346;1285;74443;-90
2022/12/01 12:34:21;;;;;;;4.90;3.90;;;;;;;18.74;29.91;101393.55;105426;1286;82102;-90
2022/12/01 12:37:13;;;;;;;6.00;4.40;;;;;;;18.75;29.90;101389.40;105357;1285;72327;31
2022/12/01 12:57:19;;;;;;;5.70;4.30;;;;;;;18.78;29.99;101391.23;105751;1275;68316;-92
2022/12/01 12:59:48;;;;;;;5.70;4.40;;;;;;;18.80;30.00;101393.61;105267;1280;75512;-90
2022/12/01 13:02:22;;;;;;;6.90;4.40;;;;;;;18.80;29.94;101398.23;105582;1291;82022;-90
2022/12/01 13:04:55;;;;;;;5.70;4.00;;;;;;;18.81;29.86;101401.15;105036;1287;72555;-93
2022/12/01 13:07:39;;;;;;;5.60;3.90;;;;;;;18.82;29.92;101399.69;105051;1285;69064;-91